Aérodrome :
LOGIN :

S'inscrire | Disclaimer

   EN    FR    IT 

 










Légende :    VFR   VFR Marginal   IFR   IFR Intensif   IFR Très Intensif
Visi : 
Plafond : 
>= 8 km
>= 3000ft
5 à 8 km
1000 à 3000 ft
1500m à 5 km
500 à 1000 ft
800 à 1500m
200 à 500 ft
< 800m
< 200 ft
Symboles :   Orages  Brouillard  Fortes neiges  Fortes précipitations  Vent > 20 kt
SIGMETs :   Divers  Orages  Givrage  Turbulence  Onde Orograph.  Cendres Volcan.







- Altitude de l'aérodrome : 1197 ft
- Code IATA : SPM


ETAD - Spangdahlem Ab

DERNIER METAR :
  • 251358Z AUTO 07003KT 9999 CLR 16/10 A3011 RMK AO2 SLP186 T01590097 TSNO

METARs EXPIRÉS :
  • 251258Z AUTO 07004KT 9999 FEW035 16/10 A3012 RMK AO2 SLP189 T01600099 TSNO
  • 251158Z AUTO 08005KT 9999 CLR 16/11 A3012 RMK AO2 SLP189 T01600106 10163 20065 TSNO

TAF TAF ETAD
Valide du 25 à 11h jusqu'au 26 à 17h UTC


251100Z 2511/2617 VRB06KT 9999 FEW060 QNH3010INS
BECMG 2522/2523 VRB06KT 5000 BR SCT030 QNH3007INS
BECMG 2603/2604 VRB06KT 3200 BR SCT002 QNH3007INS
BECMG 2604/2605 VRB06KT 1600 BR BKN002 QNH3009INS
BECMG 2607/2608 VRB06KT 3200 BR BKN002 QNH3010INS
BECMG 2608/2609 VRB06KT 6000 BR SCT005 QNH3011INS
BECMG 2610/2611 VRB06KT 9999 NSW FEW030 QNH3012INS TX17/2515Z TN03/2606Z
Pas de NOTAMs connus pour ce terrain.



MET'MAP, la Météo Aéronautique d'un coup d'oeil ! - Copyright ORBIFLY Décembre 2007 - Disclaimer

ORBIFLY MET'MAP TEAM :

Programmation & Développement : Alexandra Zaïnal
Conception & Développement : Baudouin d'Aumeries
Co-Programmation & Développement : Marc-Olivier Méhu
Soutien technique & logistique : Manuel Goepfert

Contact : metmap@orbifly.com




SOURCES & CREDITS :

   NOAA